Portada
METAR-TAF:

METAR-TAF

Aeropuertos :

Aeropuerto de Tánger-Ibn Battuta

Tánger, Marruecos

latitud: 35-44N, longitud: 005-54W, altitud: 19 m

Observación

El informe se hizo hace 42 minutos, a las 12:00 UTC
Viento 13 kt del oeste-suroeste
Temperatura 23°C
Humedad 61%
Presión 1015 hPa
Visibilidad 10 km o más
Nubes dispersas a una altura de 5000 ft

METAR: GMTT 261200Z 24013KT 9999 SCT050 23/15 Q1015 NOSIG

Hora: 13:42 (12:42 UTC)

Pronóstico

El informe se hizo hace 1 hora y 42 minutos, a las 11:00 UTC
Pronóstico válido del 26 a las 12 UTC al 27 a las 18 UTC
Viento 12 kt del oeste-suroeste
Visibilidad 10 km o más
Nubes dispersas a una altura de 4000 ft

TAF: GMTT 261100Z 2612/2718 24012KT 9999 SCT040

Observaciones y pronósticos meteorológicos de más de 4000 aeropuertos (mensajes METAR y TAF).

Los puntos amarillos y rojos representan las estaciones disponibles.

Ponga el ratón en el punto deseado para ver el nombre de la estación.

Haga clic para ver las observaciones y los pronósticos meteorológicos.

Para cambiar el mapa : haga clic en los botones verdes con una cruz de color negro para hacer un zoom, en el botón verde con un guión para alejar o en las flechas verdes para mapas adyacentes.


METAR-TAF: